createdAt,value
2023-05-07T00:00:45.862Z,13.20
2023-05-07T00:03:12.576Z,13.10
2023-05-07T00:05:40.174Z,13.10
2023-05-07T00:08:06.816Z,13.10
2023-05-07T00:10:33.406Z,13.10
2023-05-07T00:13:00.221Z,13.00
2023-05-07T00:15:26.955Z,13.00
2023-05-07T00:17:54.263Z,13.00
2023-05-07T00:20:20.882Z,13.00
2023-05-07T00:22:47.482Z,13.00
2023-05-07T00:25:14.122Z,12.90
2023-05-07T00:27:40.822Z,12.90
2023-05-07T00:30:08.037Z,12.90
2023-05-07T00:32:34.839Z,12.90
2023-05-07T00:35:01.560Z,12.90
2023-05-07T00:37:28.160Z,12.80
2023-05-07T00:39:54.796Z,12.80
2023-05-07T00:42:21.921Z,12.80
2023-05-07T00:44:48.531Z,12.80
2023-05-07T00:47:15.150Z,12.80
2023-05-07T00:49:45.319Z,12.80
2023-05-07T00:52:16.838Z,12.80
2023-05-07T00:54:43.539Z,12.80
2023-05-07T00:57:13.087Z,12.80
2023-05-07T00:59:40.677Z,12.80
2023-05-07T01:02:07.770Z,12.70
2023-05-07T01:04:34.477Z,12.70
2023-05-07T01:07:01.569Z,12.60
2023-05-07T01:09:28.975Z,12.60
2023-05-07T01:11:55.633Z,12.60
2023-05-07T01:14:22.300Z,12.60
2023-05-07T01:16:49.450Z,12.50
2023-05-07T01:19:17.085Z,12.50
2023-05-07T01:21:46.005Z,12.50
2023-05-07T01:24:12.630Z,12.50
2023-05-07T01:26:40.127Z,12.50
2023-05-07T01:29:06.778Z,12.50
2023-05-07T01:31:34.407Z,12.40
2023-05-07T01:34:01.189Z,12.40
2023-05-07T01:36:28.189Z,12.40
2023-05-07T01:38:54.793Z,12.40
2023-05-07T01:41:21.908Z,12.50
2023-05-07T01:43:48.561Z,12.40
2023-05-07T01:46:15.278Z,12.40
2023-05-07T01:48:41.903Z,12.40
2023-05-07T01:51:08.590Z,12.40
2023-05-07T01:53:38.823Z,12.40
2023-05-07T01:56:05.982Z,12.40
2023-05-07T01:58:32.589Z,12.40
2023-05-07T02:00:59.204Z,12.40
2023-05-07T02:03:25.910Z,12.30
2023-05-07T02:05:52.685Z,12.30
2023-05-07T02:08:19.300Z,12.30
2023-05-07T02:10:46.132Z,12.30
2023-05-07T02:13:12.835Z,12.20
2023-05-07T02:15:39.447Z,12.30
2023-05-07T02:18:12.905Z,12.30
2023-05-07T02:20:39.531Z,12.20
2023-05-07T02:23:06.135Z,12.20
2023-05-07T02:25:32.862Z,12.20
2023-05-07T02:27:59.478Z,12.20
2023-05-07T02:30:26.642Z,12.20
2023-05-07T02:32:53.288Z,12.20
2023-05-07T02:35:19.907Z,12.20
2023-05-07T02:37:46.643Z,12.20
2023-05-07T02:40:13.660Z,12.10
2023-05-07T02:42:40.623Z,12.10
2023-05-07T02:45:07.782Z,12.10
2023-05-07T02:47:34.437Z,12.10
2023-05-07T02:50:01.115Z,12.10
2023-05-07T02:52:27.775Z,12.10
2023-05-07T02:54:54.402Z,12.00
2023-05-07T02:57:20.991Z,12.00
2023-05-07T02:59:47.596Z,12.00
2023-05-07T03:02:14.207Z,12.00
2023-05-07T03:04:40.916Z,12.00
2023-05-07T03:07:07.633Z,12.00
2023-05-07T03:09:34.286Z,12.00
2023-05-07T03:12:00.917Z,12.00
2023-05-07T03:14:27.551Z,12.00
2023-05-07T03:16:54.428Z,12.00
2023-05-07T03:19:21.055Z,12.00
2023-05-07T03:21:47.698Z,11.90
2023-05-07T03:24:14.309Z,11.90
2023-05-07T03:26:40.917Z,11.90
2023-05-07T03:29:07.531Z,11.90
2023-05-07T03:31:34.239Z,11.80
2023-05-07T03:34:00.934Z,11.80
2023-05-07T03:36:28.405Z,11.70
2023-05-07T03:38:55.079Z,11.60
2023-05-07T03:41:21.698Z,11.60
2023-05-07T03:43:48.354Z,11.50
2023-05-07T03:46:15.062Z,11.40
2023-05-07T03:48:41.681Z,11.40
2023-05-07T03:51:08.392Z,11.30
2023-05-07T03:53:34.982Z,11.20
2023-05-07T03:56:01.613Z,11.20
2023-05-07T03:58:28.242Z,11.20
2023-05-07T04:00:54.872Z,11.10
2023-05-07T04:03:21.529Z,11.00
2023-05-07T04:05:48.266Z,11.00
2023-05-07T04:08:14.867Z,10.90
2023-05-07T04:10:41.551Z,10.90
2023-05-07T04:13:08.198Z,10.80
2023-05-07T04:15:34.833Z,10.80
2023-05-07T04:18:01.486Z,10.80
2023-05-07T04:20:28.271Z,10.70
2023-05-07T04:22:55.022Z,10.70
2023-05-07T04:25:21.808Z,10.70
2023-05-07T04:27:49.818Z,10.70
2023-05-07T04:30:16.493Z,10.60
2023-05-07T04:32:43.138Z,10.60
2023-05-07T04:35:10.090Z,10.60
2023-05-07T04:37:36.788Z,10.60
2023-05-07T04:40:04.061Z,10.50
2023-05-07T04:42:30.675Z,10.50
2023-05-07T04:44:57.376Z,10.50
2023-05-07T04:47:24.040Z,10.50
2023-05-07T04:49:50.745Z,10.50
2023-05-07T04:52:17.764Z,10.50
2023-05-07T04:54:44.378Z,10.50
2023-05-07T04:57:11.024Z,10.50
2023-05-07T04:59:37.656Z,10.60
2023-05-07T05:02:05.157Z,10.60
2023-05-07T05:04:31.802Z,10.60
2023-05-07T05:06:59.213Z,10.60
2023-05-07T05:09:26.247Z,10.60
2023-05-07T05:11:52.890Z,10.70
2023-05-07T05:14:19.514Z,10.70
2023-05-07T05:16:46.391Z,10.70
2023-05-07T05:19:13.028Z,10.70
2023-05-07T05:21:39.664Z,10.70
2023-05-07T05:24:06.771Z,10.70
2023-05-07T05:26:33.384Z,10.70
2023-05-07T05:29:00.003Z,10.70
2023-05-07T05:31:26.684Z,10.80
2023-05-07T05:33:53.342Z,10.80
2023-05-07T05:36:19.952Z,10.80
2023-05-07T05:38:47.076Z,10.90
2023-05-07T05:41:13.684Z,11.00
2023-05-07T05:43:40.783Z,11.00
2023-05-07T05:46:10.092Z,11.10
2023-05-07T05:48:36.756Z,11.10
2023-05-07T05:51:03.505Z,11.20
2023-05-07T05:53:30.446Z,11.20
2023-05-07T05:55:58.620Z,11.30
2023-05-07T05:58:25.312Z,11.40
2023-05-07T06:00:53.289Z,11.40
2023-05-07T06:03:19.967Z,11.60
2023-05-07T06:05:46.727Z,11.60
2023-05-07T06:08:13.377Z,11.70
2023-05-07T06:10:39.990Z,11.70
2023-05-07T06:13:06.657Z,11.70
2023-05-07T06:15:33.313Z,11.80
2023-05-07T06:17:59.959Z,11.80
2023-05-07T06:20:26.610Z,11.90
2023-05-07T06:22:53.304Z,12.00
2023-05-07T06:25:22.890Z,12.10
2023-05-07T06:27:49.498Z,12.20
2023-05-07T06:30:16.153Z,12.30
2023-05-07T06:32:43.247Z,12.40
2023-05-07T06:35:09.973Z,12.30
2023-05-07T06:37:39.169Z,12.40
2023-05-07T06:40:08.142Z,12.40
2023-05-07T06:42:34.969Z,12.50
2023-05-07T06:45:03.674Z,12.50
2023-05-07T06:47:30.282Z,12.60
2023-05-07T06:49:56.963Z,12.70
2023-05-07T06:52:23.576Z,12.70
2023-05-07T06:54:50.318Z,12.70
2023-05-07T06:57:16.946Z,12.70
2023-05-07T06:59:46.386Z,12.70
2023-05-07T07:02:13.001Z,12.70
2023-05-07T07:04:39.973Z,12.70
2023-05-07T07:07:06.744Z,12.60
2023-05-07T07:09:33.346Z,12.60
2023-05-07T07:12:00.167Z,12.70
2023-05-07T07:14:26.777Z,12.70
2023-05-07T07:16:53.474Z,12.90
2023-05-07T07:19:21.221Z,13.10
2023-05-07T07:21:47.870Z,13.20
2023-05-07T07:24:19.971Z,13.30
2023-05-07T07:26:46.709Z,13.30
2023-05-07T07:29:13.381Z,13.40
2023-05-07T07:31:40.042Z,13.50
2023-05-07T07:34:06.671Z,13.60
2023-05-07T07:36:42.936Z,13.50
2023-05-07T07:39:12.023Z,13.80
2023-05-07T07:41:38.771Z,13.90
2023-05-07T07:44:08.344Z,14.10
2023-05-07T07:46:35.579Z,14.20
2023-05-07T07:49:02.380Z,14.50
2023-05-07T07:51:29.004Z,14.60
2023-05-07T07:53:55.685Z,14.90
2023-05-07T07:56:23.316Z,15.10
2023-05-07T07:58:49.936Z,15.40
2023-05-07T08:01:17.607Z,15.40
2023-05-07T08:03:44.278Z,15.70
2023-05-07T08:06:11.499Z,15.80
2023-05-07T08:08:38.150Z,16.00
2023-05-07T08:11:04.800Z,16.10
2023-05-07T08:13:31.440Z,16.20
2023-05-07T08:15:58.195Z,16.00
2023-05-07T08:18:25.756Z,15.90
2023-05-07T08:20:52.368Z,15.80
2023-05-07T08:23:19.011Z,15.90
2023-05-07T08:25:45.657Z,15.90
2023-05-07T08:28:12.433Z,15.90
2023-05-07T08:30:39.214Z,16.30
2023-05-07T08:33:05.956Z,16.40
2023-05-07T08:35:32.860Z,16.90
2023-05-07T08:37:59.518Z,17.00
2023-05-07T08:40:26.551Z,17.20
2023-05-07T08:42:53.951Z,17.40
2023-05-07T08:45:21.133Z,17.10
2023-05-07T08:47:48.409Z,16.80
2023-05-07T08:50:15.158Z,16.80
2023-05-07T08:52:41.890Z,16.60
2023-05-07T08:55:09.230Z,16.40
2023-05-07T08:57:36.365Z,16.20
2023-05-07T09:00:04.978Z,16.20
2023-05-07T09:02:31.670Z,16.50
2023-05-07T09:04:58.560Z,16.10
2023-05-07T09:07:25.946Z,16.40
2023-05-07T09:09:52.539Z,16.40
2023-05-07T09:12:19.756Z,16.40
2023-05-07T09:14:47.125Z,16.10
2023-05-07T09:17:14.162Z,16.20
2023-05-07T09:19:41.005Z,16.10
2023-05-07T09:22:10.386Z,16.00
2023-05-07T09:24:38.843Z,16.10
2023-05-07T09:27:06.062Z,16.10
2023-05-07T09:29:38.706Z,16.30
2023-05-07T09:32:06.424Z,16.70
2023-05-07T09:34:33.418Z,16.70
2023-05-07T09:37:03.125Z,16.60
2023-05-07T09:39:43.400Z,16.60
2023-05-07T09:42:10.113Z,16.70
2023-05-07T09:44:36.943Z,17.00
2023-05-07T09:47:05.478Z,17.00
2023-05-07T09:49:32.951Z,17.00
2023-05-07T09:51:59.594Z,16.70
2023-05-07T09:54:26.889Z,16.90
2023-05-07T09:56:54.026Z,16.80
2023-05-07T09:59:20.762Z,16.70
2023-05-07T10:01:47.390Z,16.70
2023-05-07T10:04:14.327Z,16.90
2023-05-07T10:06:41.206Z,17.10
2023-05-07T10:09:08.038Z,17.20
2023-05-07T10:11:35.420Z,17.20
2023-05-07T10:14:04.962Z,17.70
2023-05-07T10:16:33.729Z,18.20
2023-05-07T10:19:06.965Z,18.60
2023-05-07T10:21:40.719Z,17.90
2023-05-07T10:24:14.880Z,18.00
2023-05-07T10:26:43.364Z,18.60
2023-05-07T10:29:27.935Z,18.80
2023-05-07T10:32:06.755Z,19.30
2023-05-07T10:34:41.614Z,19.10
2023-05-07T10:37:08.264Z,18.50
2023-05-07T10:39:35.361Z,18.80
2023-05-07T10:42:11.831Z,19.00
2023-05-07T10:44:38.673Z,18.60
2023-05-07T10:47:11.808Z,18.40
2023-05-07T10:49:47.551Z,18.00
2023-05-07T10:52:15.716Z,17.70
2023-05-07T10:54:43.011Z,17.40
2023-05-07T10:57:38.119Z,17.40
2023-05-07T11:00:05.297Z,17.10
2023-05-07T11:03:00.286Z,17.10
2023-05-07T11:05:27.899Z,17.10
2023-05-07T11:07:58.455Z,17.20
2023-05-07T11:10:45.080Z,17.10
2023-05-07T11:13:11.706Z,16.90
2023-05-07T11:15:40.041Z,16.90
2023-05-07T11:18:06.808Z,16.90
2023-05-07T11:20:52.715Z,16.80
2023-05-07T11:23:34.436Z,16.90
2023-05-07T11:26:11.965Z,17.00
2023-05-07T11:28:42.410Z,17.00
2023-05-07T11:31:09.447Z,17.10
2023-05-07T11:33:36.255Z,17.20
2023-05-07T11:36:06.429Z,17.30
2023-05-07T11:38:36.180Z,17.50
2023-05-07T11:41:03.513Z,17.70
2023-05-07T11:43:30.159Z,17.50
2023-05-07T11:46:06.337Z,17.30
2023-05-07T11:48:35.828Z,17.10
2023-05-07T11:51:06.535Z,17.30
2023-05-07T11:53:37.746Z,17.30
2023-05-07T11:56:08.673Z,17.40
2023-05-07T11:58:35.334Z,17.80
2023-05-07T12:01:01.954Z,17.80
2023-05-07T12:03:31.082Z,17.70
2023-05-07T12:05:58.641Z,17.50
2023-05-07T12:08:25.239Z,17.50
2023-05-07T12:10:52.382Z,17.20
2023-05-07T12:13:19.821Z,17.60
2023-05-07T12:15:46.732Z,17.40
2023-05-07T12:18:13.585Z,17.80
2023-05-07T12:20:40.355Z,17.60
2023-05-07T12:23:07.072Z,17.60
2023-05-07T12:25:35.982Z,17.40
2023-05-07T12:28:03.403Z,17.00
2023-05-07T12:30:30.020Z,16.80
2023-05-07T12:32:56.752Z,17.10
2023-05-07T12:35:33.744Z,17.30
2023-05-07T12:38:04.977Z,17.20
2023-05-07T12:40:42.238Z,17.00
2023-05-07T12:43:09.176Z,16.80
2023-05-07T12:45:39.974Z,16.70
2023-05-07T12:48:06.789Z,16.60
2023-05-07T12:50:34.124Z,16.60
2023-05-07T12:53:00.882Z,16.90
2023-05-07T12:55:29.229Z,16.90
2023-05-07T12:58:01.802Z,16.80
2023-05-07T13:00:38.211Z,17.00
2023-05-07T13:03:05.103Z,17.10
2023-05-07T13:05:32.794Z,17.00
2023-05-07T13:07:59.413Z,17.10
2023-05-07T13:10:26.215Z,17.00
2023-05-07T13:12:52.884Z,16.70
2023-05-07T13:15:19.705Z,16.50
2023-05-07T13:17:46.415Z,16.20
2023-05-07T13:20:16.462Z,16.20
2023-05-07T13:22:43.313Z,16.40
2023-05-07T13:25:10.401Z,16.40
2023-05-07T13:27:38.038Z,16.20
2023-05-07T13:30:05.855Z,16.40
2023-05-07T13:32:32.621Z,16.40
2023-05-07T13:34:59.451Z,16.50
2023-05-07T13:37:26.101Z,16.90
2023-05-07T13:39:52.740Z,17.00
2023-05-07T13:42:19.371Z,17.10
2023-05-07T13:44:46.320Z,17.20
2023-05-07T13:47:13.014Z,16.90
2023-05-07T13:49:39.646Z,17.00
2023-05-07T13:52:06.270Z,16.80
2023-05-07T13:54:32.910Z,16.90
2023-05-07T13:56:59.547Z,16.80
2023-05-07T13:59:26.422Z,16.50
2023-05-07T14:01:53.061Z,16.50
2023-05-07T14:04:19.664Z,16.50
2023-05-07T14:06:46.432Z,16.60
2023-05-07T14:09:14.440Z,16.60
2023-05-07T14:11:41.185Z,16.70
2023-05-07T14:14:07.886Z,17.00
2023-05-07T14:16:34.527Z,17.00
2023-05-07T14:19:01.210Z,17.00
2023-05-07T14:21:27.903Z,17.00
2023-05-07T14:23:54.548Z,17.20
2023-05-07T14:26:21.708Z,17.20
2023-05-07T14:28:48.354Z,17.00
2023-05-07T14:31:15.146Z,16.80
2023-05-07T14:33:42.357Z,16.60
2023-05-07T14:36:09.106Z,16.70
2023-05-07T14:38:35.760Z,16.70
2023-05-07T14:41:02.457Z,16.80
2023-05-07T14:43:29.096Z,17.00
2023-05-07T14:45:55.788Z,17.10
2023-05-07T14:48:22.464Z,16.90
2023-05-07T14:50:49.412Z,17.00
2023-05-07T14:53:16.645Z,17.20
2023-05-07T14:55:43.252Z,17.20
2023-05-07T14:58:10.191Z,17.20
2023-05-07T15:00:36.859Z,17.00
2023-05-07T15:03:09.049Z,17.20
2023-05-07T15:05:36.228Z,17.20
2023-05-07T15:08:03.169Z,17.20
2023-05-07T15:10:29.846Z,17.10
2023-05-07T15:12:56.498Z,17.10
2023-05-07T15:15:23.133Z,16.90
2023-05-07T15:17:49.824Z,17.00
2023-05-07T15:20:16.672Z,17.00
2023-05-07T15:22:43.271Z,16.90
2023-05-07T15:25:10.647Z,16.60
2023-05-07T15:27:37.567Z,16.60
2023-05-07T15:30:04.643Z,16.60
2023-05-07T15:32:31.365Z,16.80
2023-05-07T15:34:58.078Z,16.60
2023-05-07T15:37:24.689Z,16.50
2023-05-07T15:39:51.378Z,16.30
2023-05-07T15:42:18.039Z,16.40
2023-05-07T15:44:44.670Z,16.60
2023-05-07T15:47:11.285Z,16.60
2023-05-07T15:49:37.892Z,16.50
2023-05-07T15:52:04.625Z,16.10
2023-05-07T15:54:31.267Z,16.00
2023-05-07T15:56:57.876Z,16.10
2023-05-07T15:59:24.485Z,16.20
2023-05-07T16:01:51.436Z,16.00
2023-05-07T16:04:18.115Z,16.00
2023-05-07T16:06:47.297Z,15.90
2023-05-07T16:09:14.490Z,15.80
2023-05-07T16:11:41.112Z,15.70
2023-05-07T16:14:07.723Z,15.60
2023-05-07T16:16:34.914Z,15.50
2023-05-07T16:19:01.655Z,15.50
2023-05-07T16:21:28.360Z,15.50
2023-05-07T16:23:55.004Z,15.40
2023-05-07T16:26:21.740Z,15.50
2023-05-07T16:28:48.463Z,15.60
2023-05-07T16:31:15.189Z,15.50
2023-05-07T16:33:41.824Z,15.40
2023-05-07T16:36:08.465Z,15.40
2023-05-07T16:38:35.084Z,15.40
2023-05-07T16:41:02.238Z,15.30
2023-05-07T16:43:28.943Z,15.20
2023-05-07T16:45:55.771Z,15.10
2023-05-07T16:48:22.468Z,14.90
2023-05-07T16:50:49.086Z,15.00
2023-05-07T16:53:15.827Z,15.10
2023-05-07T16:55:42.444Z,15.10
2023-05-07T16:58:10.113Z,15.00
2023-05-07T17:00:49.068Z,15.00
2023-05-07T17:03:17.770Z,14.80
2023-05-07T17:05:44.601Z,14.70
2023-05-07T17:08:11.256Z,14.60
2023-05-07T17:10:37.868Z,14.70
2023-05-07T17:13:04.552Z,14.70
2023-05-07T17:15:31.214Z,14.60
2023-05-07T17:17:57.893Z,14.70
2023-05-07T17:20:25.243Z,14.60
2023-05-07T17:22:51.859Z,14.60
2023-05-07T17:25:18.882Z,14.50
2023-05-07T17:27:45.493Z,14.50
2023-05-07T17:30:14.092Z,14.50
2023-05-07T17:32:41.814Z,14.50
2023-05-07T17:35:08.843Z,14.50
2023-05-07T17:37:35.457Z,14.40
2023-05-07T17:40:02.438Z,14.40
2023-05-07T17:42:29.532Z,14.30
2023-05-07T17:44:56.317Z,14.20
2023-05-07T17:47:23.107Z,14.10
2023-05-07T17:49:49.749Z,14.00
2023-05-07T17:52:16.483Z,13.90
2023-05-07T17:54:43.108Z,13.90
2023-05-07T17:57:09.763Z,13.90
2023-05-07T17:59:37.025Z,13.80
2023-05-07T18:02:03.873Z,13.70
2023-05-07T18:04:30.542Z,13.60
2023-05-07T18:06:57.439Z,13.40
2023-05-07T18:09:24.248Z,13.50
2023-05-07T18:11:50.859Z,13.40
2023-05-07T18:14:17.527Z,13.40
2023-05-07T18:16:44.312Z,13.40
2023-05-07T18:19:12.051Z,13.30
2023-05-07T18:21:38.753Z,13.20
2023-05-07T18:24:05.646Z,13.20
2023-05-07T18:26:32.295Z,13.10
2023-05-07T18:28:58.963Z,13.00
2023-05-07T18:31:25.825Z,13.00
2023-05-07T18:33:53.047Z,12.90
2023-05-07T18:36:19.792Z,12.90
2023-05-07T18:38:49.497Z,12.70
2023-05-07T18:41:16.145Z,12.60
2023-05-07T18:43:42.744Z,12.60
2023-05-07T18:46:09.400Z,12.50
2023-05-07T18:48:36.054Z,12.50
2023-05-07T18:51:05.931Z,12.40
2023-05-07T18:53:32.751Z,12.30
2023-05-07T18:56:00.770Z,12.30
2023-05-07T18:58:27.520Z,12.20
2023-05-07T19:00:54.228Z,12.20
2023-05-07T19:03:20.945Z,12.10
2023-05-07T19:05:47.555Z,12.00
2023-05-07T19:08:14.650Z,12.00
2023-05-07T19:10:41.386Z,12.00
2023-05-07T19:13:08.085Z,11.90
2023-05-07T19:15:34.782Z,11.80
2023-05-07T19:18:01.515Z,11.80
2023-05-07T19:20:28.931Z,11.80
2023-05-07T19:22:55.682Z,11.70
2023-05-07T19:25:22.384Z,11.70
2023-05-07T19:27:51.107Z,11.70
2023-05-07T19:30:17.980Z,11.60
2023-05-07T19:32:44.631Z,11.60
2023-05-07T19:35:11.582Z,11.60
2023-05-07T19:37:38.760Z,11.60
2023-05-07T19:40:06.522Z,11.50
2023-05-07T19:42:33.226Z,11.50
2023-05-07T19:44:59.889Z,11.40
2023-05-07T19:47:26.713Z,11.40
2023-05-07T19:49:53.432Z,11.40
2023-05-07T19:52:20.047Z,11.40
2023-05-07T19:54:46.646Z,11.30
2023-05-07T19:57:13.429Z,11.30
2023-05-07T19:59:40.545Z,11.30
2023-05-07T20:02:07.409Z,11.30
2023-05-07T20:04:37.899Z,11.30
2023-05-07T20:07:05.315Z,11.30
2023-05-07T20:09:31.991Z,11.30
2023-05-07T20:11:58.611Z,11.30
2023-05-07T20:14:25.954Z,11.30
2023-05-07T20:16:52.619Z,11.20
2023-05-07T20:19:19.358Z,11.20
2023-05-07T20:21:45.991Z,11.20
2023-05-07T20:24:12.626Z,11.20
2023-05-07T20:26:39.226Z,11.20
2023-05-07T20:29:05.864Z,11.20
2023-05-07T20:31:34.910Z,11.10
2023-05-07T20:34:01.861Z,11.10
2023-05-07T20:36:28.763Z,11.20
2023-05-07T20:38:56.064Z,11.10
2023-05-07T20:41:25.361Z,11.10
2023-05-07T20:43:52.267Z,11.10
2023-05-07T20:46:22.420Z,11.10
2023-05-07T20:48:49.701Z,11.10
2023-05-07T20:51:16.502Z,11.10
2023-05-07T20:53:47.822Z,11.00
2023-05-07T20:56:14.746Z,11.00
2023-05-07T20:58:41.337Z,11.00
2023-05-07T21:01:08.027Z,11.00
2023-05-07T21:03:34.733Z,10.90
2023-05-07T21:06:01.465Z,10.90
2023-05-07T21:08:28.062Z,10.90
2023-05-07T21:10:54.791Z,10.90
2023-05-07T21:13:21.635Z,11.00
2023-05-07T21:15:48.413Z,10.90
2023-05-07T21:18:15.802Z,10.80
2023-05-07T21:20:42.414Z,10.90
2023-05-07T21:23:09.021Z,10.80
2023-05-07T21:25:41.490Z,10.80
2023-05-07T21:28:08.812Z,10.80
2023-05-07T21:30:36.017Z,10.80
2023-05-07T21:33:02.867Z,10.80
2023-05-07T21:35:29.521Z,10.80
2023-05-07T21:37:56.176Z,10.80
2023-05-07T21:40:22.832Z,10.80
2023-05-07T21:42:49.442Z,10.80
2023-05-07T21:45:16.131Z,10.70
2023-05-07T21:47:42.787Z,10.70
2023-05-07T21:50:09.744Z,10.70
2023-05-07T21:52:36.422Z,10.70
2023-05-07T21:55:03.651Z,10.80
2023-05-07T21:57:30.332Z,10.80
2023-05-07T21:59:56.925Z,10.80
2023-05-07T22:02:23.543Z,10.70
2023-05-07T22:04:50.164Z,10.80
2023-05-07T22:07:16.763Z,10.70
2023-05-07T22:09:43.432Z,10.70
2023-05-07T22:12:10.040Z,10.70
2023-05-07T22:14:36.617Z,10.70
2023-05-07T22:17:03.207Z,10.70
2023-05-07T22:19:29.794Z,10.70
2023-05-07T22:21:56.395Z,10.70
2023-05-07T22:24:23.267Z,10.60
2023-05-07T22:26:49.848Z,10.60
2023-05-07T22:29:16.477Z,10.60
2023-05-07T22:31:43.091Z,10.60
2023-05-07T22:34:09.744Z,10.60
2023-05-07T22:36:36.352Z,10.50
2023-05-07T22:39:06.895Z,10.50
2023-05-07T22:41:33.527Z,10.50
2023-05-07T22:44:00.605Z,10.50
2023-05-07T22:46:27.275Z,10.50
2023-05-07T22:48:53.938Z,10.50
2023-05-07T22:51:20.534Z,10.40
2023-05-07T22:53:47.144Z,10.40
2023-05-07T22:56:13.750Z,10.50
2023-05-07T22:58:40.359Z,10.40
2023-05-07T23:01:14.079Z,10.30
2023-05-07T23:03:40.964Z,10.30
2023-05-07T23:06:07.662Z,10.30
2023-05-07T23:08:34.467Z,10.30
2023-05-07T23:11:01.154Z,10.30
2023-05-07T23:13:27.848Z,10.30
2023-05-07T23:15:54.682Z,10.30
2023-05-07T23:18:21.295Z,10.20
2023-05-07T23:20:47.901Z,10.20
2023-05-07T23:23:14.529Z,10.20
2023-05-07T23:25:41.349Z,10.20
2023-05-07T23:28:07.942Z,10.10
2023-05-07T23:30:34.745Z,10.20
2023-05-07T23:33:01.411Z,10.20
2023-05-07T23:35:28.041Z,10.10
2023-05-07T23:37:54.637Z,10.10
2023-05-07T23:40:21.262Z,10.10
2023-05-07T23:42:47.865Z,10.10
2023-05-07T23:45:14.564Z,10.00
2023-05-07T23:47:41.555Z,10.00
2023-05-07T23:50:08.530Z,10.00
2023-05-07T23:52:35.509Z,10.00
2023-05-07T23:55:02.207Z,10.00
2023-05-07T23:57:28.964Z,10.00
2023-05-07T23:59:55.690Z,9.90
